createdAt,value
2023-03-02T00:00:47.923Z,96269.34
2023-03-02T00:03:18.284Z,96274.63
2023-03-02T00:05:49.103Z,96272.16
2023-03-02T00:08:18.093Z,96284.53
2023-03-02T00:10:44.974Z,96271.91
2023-03-02T00:13:13.918Z,96276.84
2023-03-02T00:15:41.423Z,96278.50
2023-03-02T00:18:08.079Z,96276.38
2023-03-02T00:20:36.001Z,96277.19
2023-03-02T00:23:02.648Z,96273.03
2023-03-02T00:25:29.408Z,96268.44
2023-03-02T00:27:56.272Z,96266.19
2023-03-02T00:30:22.882Z,96273.22
2023-03-02T00:32:49.660Z,96281.81
2023-03-02T00:35:16.460Z,96282.75
2023-03-02T00:37:43.400Z,96278.25
2023-03-02T00:40:11.284Z,96283.53
2023-03-02T00:42:38.198Z,96273.50
2023-03-02T00:45:06.147Z,96268.75
2023-03-02T00:47:36.813Z,96277.41
2023-03-02T00:50:05.373Z,96287.44
2023-03-02T00:52:33.320Z,96282.03
2023-03-02T00:54:59.937Z,96279.72
2023-03-02T00:57:26.586Z,96283.41
2023-03-02T00:59:53.229Z,96280.31
2023-03-02T01:02:21.743Z,96280.44
2023-03-02T01:04:49.371Z,96275.34
2023-03-02T01:07:18.554Z,96261.91
2023-03-02T01:09:45.542Z,96259.25
2023-03-02T01:12:12.881Z,96259.94
2023-03-02T01:14:43.196Z,96260.28
2023-03-02T01:17:10.550Z,96260.88
2023-03-02T01:19:37.943Z,96261.34
2023-03-02T01:22:04.932Z,96252.16
2023-03-02T01:24:32.359Z,96248.91
2023-03-02T01:26:58.980Z,96240.03
2023-03-02T01:29:26.383Z,96236.53
2023-03-02T01:31:53.185Z,96239.44
2023-03-02T01:34:19.922Z,96229.34
2023-03-02T01:36:46.573Z,96238.22
2023-03-02T01:39:16.741Z,96229.06
2023-03-02T01:41:44.757Z,96235.06
2023-03-02T01:44:36.057Z,96234.50
2023-03-02T01:47:05.270Z,96235.53
2023-03-02T01:49:37.386Z,96229.72
2023-03-02T01:52:04.306Z,96225.56
2023-03-02T01:54:31.055Z,96228.19
2023-03-02T01:57:02.383Z,96216.19
2023-03-02T01:59:31.520Z,96215.81
2023-03-02T02:02:01.736Z,96216.59
2023-03-02T02:04:30.856Z,96217.75
2023-03-02T02:07:02.791Z,96212.72
2023-03-02T02:09:38.917Z,96208.31
2023-03-02T02:12:06.046Z,96203.22
2023-03-02T02:14:33.048Z,96202.84
2023-03-02T02:16:59.792Z,96209.97
2023-03-02T02:19:50.995Z,96211.84
2023-03-02T02:22:30.487Z,96203.53
2023-03-02T02:25:02.245Z,96203.31
2023-03-02T02:27:33.776Z,96200.31
2023-03-02T02:30:04.689Z,96197.97
2023-03-02T02:32:36.535Z,96192.56
2023-03-02T02:35:07.369Z,96190.75
2023-03-02T02:37:39.949Z,96195.31
2023-03-02T02:40:12.654Z,96188.31
2023-03-02T02:42:44.423Z,96202.78
2023-03-02T02:45:26.151Z,96193.88
2023-03-02T02:47:53.840Z,96191.69
2023-03-02T02:50:28.024Z,96182.16
2023-03-02T02:53:18.123Z,96196.69
2023-03-02T02:55:48.042Z,96188.81
2023-03-02T02:58:40.136Z,96193.88
2023-03-02T03:01:07.059Z,96193.31
2023-03-02T03:03:39.362Z,96190.63
2023-03-02T03:06:13.626Z,96190.28
2023-03-02T03:08:46.353Z,96189.91
2023-03-02T03:11:15.972Z,96187.25
2023-03-02T03:13:44.453Z,96183.44
2023-03-02T03:16:14.852Z,96182.56
2023-03-02T03:18:47.172Z,96167.28
2023-03-02T03:21:13.820Z,96180.28
2023-03-02T03:23:40.427Z,96176.47
2023-03-02T03:26:07.170Z,96180.56
2023-03-02T03:28:33.989Z,96177.25
2023-03-02T03:31:00.710Z,96171.97
2023-03-02T03:33:27.423Z,96171.66
2023-03-02T03:35:54.197Z,96175.44
2023-03-02T03:38:20.848Z,96173.63
2023-03-02T03:40:47.471Z,96164.13
2023-03-02T03:43:15.263Z,96171.34
2023-03-02T03:45:41.888Z,96177.81
2023-03-02T03:48:08.655Z,96178.38
2023-03-02T03:50:35.603Z,96177.91
2023-03-02T03:53:03.910Z,96169.09
2023-03-02T03:55:31.225Z,96173.91
2023-03-02T03:57:57.857Z,96173.84
2023-03-02T04:00:24.601Z,96179.53
2023-03-02T04:02:51.336Z,96180.97
2023-03-02T04:05:18.092Z,96180.63
2023-03-02T04:07:44.762Z,96175.84
2023-03-02T04:10:12.422Z,96171.75
2023-03-02T04:12:41.400Z,96178.41
2023-03-02T04:15:10.582Z,96175.34
2023-03-02T04:17:37.181Z,96171.81
2023-03-02T04:20:07.728Z,96172.53
2023-03-02T04:22:34.332Z,96167.56
2023-03-02T04:25:01.209Z,96170.69
2023-03-02T04:27:27.835Z,96165.69
2023-03-02T04:29:54.451Z,96165.31
2023-03-02T04:32:21.095Z,96156.44
2023-03-02T04:34:47.719Z,96170.31
2023-03-02T04:37:16.013Z,96168.44
2023-03-02T04:39:43.261Z,96175.53
2023-03-02T04:42:09.877Z,96173.50
2023-03-02T04:44:36.466Z,96170.63
2023-03-02T04:47:03.075Z,96169.56
2023-03-02T04:49:29.678Z,96175.19
2023-03-02T04:51:56.303Z,96170.50
2023-03-02T04:54:26.246Z,96175.59
2023-03-02T04:56:53.771Z,96175.22
2023-03-02T04:59:26.110Z,96182.28
2023-03-02T05:01:58.706Z,96169.66
2023-03-02T05:04:26.239Z,96170.09
2023-03-02T05:06:52.932Z,96172.75
2023-03-02T05:09:20.083Z,96174.44
2023-03-02T05:11:47.059Z,96156.22
2023-03-02T05:14:13.934Z,96168.13
2023-03-02T05:16:42.147Z,96171.94
2023-03-02T05:19:11.556Z,96179.34
2023-03-02T05:21:38.352Z,96162.38
2023-03-02T05:24:05.593Z,96165.56
2023-03-02T05:26:32.720Z,96154.88
2023-03-02T05:28:59.554Z,96163.81
2023-03-02T05:31:36.263Z,96156.88
2023-03-02T05:34:04.925Z,96152.25
2023-03-02T05:36:32.206Z,96154.06
2023-03-02T05:38:59.059Z,96155.69
2023-03-02T05:41:26.006Z,96161.84
2023-03-02T05:43:53.174Z,96168.09
2023-03-02T05:46:22.007Z,96165.94
2023-03-02T05:48:49.263Z,96161.28
2023-03-02T05:51:15.900Z,96170.44
2023-03-02T05:53:42.552Z,96159.50
2023-03-02T05:56:09.306Z,96169.38
2023-03-02T05:58:36.055Z,96173.31
2023-03-02T06:01:02.696Z,96174.03
2023-03-02T06:03:29.534Z,96173.47
2023-03-02T06:05:56.287Z,96176.13
2023-03-02T06:08:23.334Z,96178.56
2023-03-02T06:10:50.977Z,96177.50
2023-03-02T06:13:18.085Z,96169.75
2023-03-02T06:15:44.876Z,96176.19
2023-03-02T06:18:12.682Z,96175.53
2023-03-02T06:20:40.491Z,96169.97
2023-03-02T06:23:07.157Z,96173.44
2023-03-02T06:25:35.986Z,96175.31
2023-03-02T06:28:02.581Z,96175.16
2023-03-02T06:30:29.407Z,96172.84
2023-03-02T06:32:56.083Z,96166.66
2023-03-02T06:35:24.231Z,96168.03
2023-03-02T06:37:51.360Z,96163.69
2023-03-02T06:40:18.403Z,96164.50
2023-03-02T06:42:45.018Z,96167.69
2023-03-02T06:45:12.106Z,96158.53
2023-03-02T06:47:39.414Z,96165.94
2023-03-02T06:50:06.623Z,96171.72
2023-03-02T06:52:33.629Z,96175.09
2023-03-02T06:55:00.263Z,96178.28
2023-03-02T06:57:33.731Z,96172.66
2023-03-02T07:00:02.394Z,96172.50
2023-03-02T07:02:29.000Z,96168.88
2023-03-02T07:04:55.664Z,96180.69
2023-03-02T07:07:22.248Z,96177.13
2023-03-02T07:09:48.880Z,96182.13
2023-03-02T07:12:15.455Z,96180.50
2023-03-02T07:14:42.076Z,96173.47
2023-03-02T07:17:09.000Z,96180.66
2023-03-02T07:19:35.726Z,96177.91
2023-03-02T07:22:02.321Z,96175.59
2023-03-02T07:24:28.971Z,96182.13
2023-03-02T07:26:55.556Z,96187.19
2023-03-02T07:29:22.180Z,96184.38
2023-03-02T07:31:48.778Z,96193.44
2023-03-02T07:34:16.385Z,96187.38
2023-03-02T07:36:42.999Z,96189.31
2023-03-02T07:39:09.595Z,96197.22
2023-03-02T07:41:36.399Z,96202.13
2023-03-02T07:44:03.112Z,96202.06
2023-03-02T07:46:29.815Z,96196.03
2023-03-02T07:48:56.537Z,96202.97
2023-03-02T07:51:23.184Z,96202.97
2023-03-02T07:53:49.777Z,96196.84
2023-03-02T07:56:16.562Z,96204.63
2023-03-02T07:58:43.342Z,96202.88
2023-03-02T08:01:10.137Z,96203.69
2023-03-02T08:03:37.378Z,96202.78
2023-03-02T08:06:09.209Z,96203.94
2023-03-02T08:08:36.822Z,96200.53
2023-03-02T08:11:12.858Z,96200.34
2023-03-02T08:13:40.069Z,96195.59
2023-03-02T08:16:08.627Z,96199.19
2023-03-02T08:18:37.418Z,96207.59
2023-03-02T08:21:05.168Z,96208.28
2023-03-02T08:23:31.811Z,96207.19
2023-03-02T08:25:58.460Z,96201.72
2023-03-02T08:28:25.112Z,96194.13
2023-03-02T08:30:58.756Z,96185.59
2023-03-02T08:33:27.139Z,96200.44
2023-03-02T08:35:58.651Z,96200.25
2023-03-02T08:38:26.128Z,96192.44
2023-03-02T08:40:53.222Z,96191.00
2023-03-02T08:43:20.865Z,96191.16
2023-03-02T08:45:52.301Z,96180.78
2023-03-02T08:48:20.468Z,96186.50
2023-03-02T08:51:04.239Z,96186.00
2023-03-02T08:53:34.334Z,96187.03
2023-03-02T08:56:01.077Z,96185.50
2023-03-02T08:58:28.292Z,96182.94
2023-03-02T09:00:55.006Z,96183.69
2023-03-02T09:03:21.810Z,96182.47
2023-03-02T09:05:48.561Z,96177.34
2023-03-02T09:08:15.204Z,96176.28
2023-03-02T09:10:41.819Z,96176.28
2023-03-02T09:13:08.778Z,96168.91
2023-03-02T09:15:35.758Z,96164.59
2023-03-02T09:18:02.444Z,96171.03
2023-03-02T09:20:29.061Z,96168.34
2023-03-02T09:22:55.731Z,96166.16
2023-03-02T09:25:22.431Z,96161.63
2023-03-02T09:27:49.079Z,96171.75
2023-03-02T09:30:16.144Z,96157.47
2023-03-02T09:32:42.994Z,96153.50
2023-03-02T09:35:09.967Z,96156.19
2023-03-02T09:37:38.904Z,96158.81
2023-03-02T09:40:15.886Z,96150.09
2023-03-02T09:42:51.142Z,96148.28
2023-03-02T09:45:23.831Z,96158.81
2023-03-02T09:48:03.860Z,96161.25
2023-03-02T09:50:37.088Z,96154.19
2023-03-02T09:53:22.185Z,96150.88
2023-03-02T09:55:54.215Z,96150.44
2023-03-02T09:58:25.613Z,96142.84
2023-03-02T10:00:52.543Z,96141.69
2023-03-02T10:03:22.626Z,96134.09
2023-03-02T10:05:51.911Z,96138.91
2023-03-02T10:08:21.978Z,96147.09
2023-03-02T10:11:22.381Z,96139.81
2023-03-02T10:14:07.008Z,96141.69
2023-03-02T10:16:47.144Z,96135.69
2023-03-02T10:19:21.376Z,96135.75
2023-03-02T10:21:57.374Z,96128.28
2023-03-02T10:24:35.847Z,96120.31
2023-03-02T10:27:12.381Z,96118.63
2023-03-02T10:29:39.009Z,96133.47
2023-03-02T10:32:30.150Z,96133.53
2023-03-02T10:34:58.633Z,96134.06
2023-03-02T10:37:29.705Z,96122.47
2023-03-02T10:39:56.914Z,96121.03
2023-03-02T10:42:37.701Z,96116.50
2023-03-02T10:45:13.551Z,96106.81
2023-03-02T10:47:40.149Z,96109.50
2023-03-02T10:50:21.670Z,96102.78
2023-03-02T10:52:59.946Z,96100.75
2023-03-02T10:55:27.999Z,96103.19
2023-03-02T10:58:29.592Z,96101.72
2023-03-02T11:01:07.322Z,96095.72
2023-03-02T11:03:34.283Z,96091.97
2023-03-02T11:06:22.619Z,96092.78
2023-03-02T11:09:06.618Z,96088.03
2023-03-02T11:11:34.207Z,96086.03
2023-03-02T11:14:17.035Z,96082.00
2023-03-02T11:16:44.069Z,96084.50
2023-03-02T11:19:40.152Z,96080.25
2023-03-02T11:22:12.184Z,96073.88
2023-03-02T11:24:50.273Z,96073.28
2023-03-02T11:27:26.945Z,96075.13
2023-03-02T11:30:02.928Z,96064.97
2023-03-02T11:32:36.576Z,96070.22
2023-03-02T11:35:05.486Z,96062.13
2023-03-02T11:37:52.962Z,96060.53
2023-03-02T11:40:23.789Z,96061.50
2023-03-02T11:42:51.214Z,96050.94
2023-03-02T11:45:22.716Z,96054.94
2023-03-02T11:48:06.317Z,96050.31
2023-03-02T11:50:37.467Z,96050.09
2023-03-02T11:53:07.826Z,96040.59
2023-03-02T11:55:45.558Z,96051.13
2023-03-02T11:58:18.395Z,96042.78
2023-03-02T12:00:46.964Z,96043.91
2023-03-02T12:03:16.658Z,96043.75
2023-03-02T12:05:46.306Z,96038.50
2023-03-02T12:08:19.094Z,96031.13
2023-03-02T12:11:06.406Z,96033.41
2023-03-02T12:13:39.122Z,96025.97
2023-03-02T12:16:37.103Z,96022.25
2023-03-02T12:19:26.785Z,96020.66
2023-03-02T12:22:00.707Z,96014.75
2023-03-02T12:24:35.980Z,96016.75
2023-03-02T12:27:04.552Z,96009.94
2023-03-02T12:29:45.760Z,96008.56
2023-03-02T12:32:31.193Z,96015.03
2023-03-02T12:35:00.711Z,96000.81
2023-03-02T12:37:40.437Z,95995.94
2023-03-02T12:40:31.288Z,95997.84
2023-03-02T12:43:36.007Z,95991.84
2023-03-02T12:46:20.962Z,95993.81
2023-03-02T12:48:59.624Z,95989.81
2023-03-02T12:51:29.448Z,95989.84
2023-03-02T12:54:07.123Z,95986.00
2023-03-02T12:56:34.458Z,95983.28
2023-03-02T12:59:01.267Z,95978.66
2023-03-02T13:01:30.665Z,95976.50
2023-03-02T13:03:58.420Z,95978.66
2023-03-02T13:06:30.079Z,95968.38
2023-03-02T13:08:59.509Z,95973.00
2023-03-02T13:11:32.182Z,95982.03
2023-03-02T13:14:00.196Z,95976.50
2023-03-02T13:16:29.880Z,95986.28
2023-03-02T13:18:59.925Z,95973.56
2023-03-02T13:21:38.267Z,95980.56
2023-03-02T13:24:32.563Z,95977.53
2023-03-02T13:27:20.605Z,95957.28
2023-03-02T13:29:48.232Z,95961.16
2023-03-02T13:32:43.336Z,95961.34
2023-03-02T13:35:26.803Z,95965.31
2023-03-02T13:38:04.801Z,95958.44
2023-03-02T13:40:31.495Z,95949.16
2023-03-02T13:42:58.527Z,95948.69
2023-03-02T13:45:31.111Z,95954.25
2023-03-02T13:48:13.814Z,95951.31
2023-03-02T13:50:40.440Z,95947.00
2023-03-02T13:53:07.263Z,95944.41
2023-03-02T13:55:35.287Z,95949.16
2023-03-02T13:58:02.548Z,95952.28
2023-03-02T14:00:33.942Z,95945.25
2023-03-02T14:03:01.333Z,95944.84
2023-03-02T14:05:33.403Z,95931.72
2023-03-02T14:08:00.805Z,95930.16
2023-03-02T14:10:27.657Z,95919.50
2023-03-02T14:12:59.730Z,95930.94
2023-03-02T14:15:26.637Z,95933.97
2023-03-02T14:17:53.322Z,95922.16
2023-03-02T14:20:20.745Z,95933.53
2023-03-02T14:22:48.665Z,95926.47
2023-03-02T14:25:15.486Z,95920.25
2023-03-02T14:27:43.158Z,95928.38
2023-03-02T14:30:20.783Z,95928.72
2023-03-02T14:32:47.962Z,95923.31
2023-03-02T14:35:16.650Z,95912.56
2023-03-02T14:37:47.060Z,95906.81
2023-03-02T14:40:21.583Z,95906.19
2023-03-02T14:42:48.660Z,95903.50
2023-03-02T14:45:16.525Z,95908.66
2023-03-02T14:47:43.167Z,95913.31
2023-03-02T14:50:11.783Z,95912.22
2023-03-02T14:52:48.235Z,95905.63
2023-03-02T14:55:25.838Z,95897.59
2023-03-02T14:57:57.295Z,95906.88
2023-03-02T15:00:24.977Z,95900.78
2023-03-02T15:02:51.987Z,95905.25
2023-03-02T15:05:18.987Z,95909.00
2023-03-02T15:07:45.876Z,95908.75
2023-03-02T15:10:18.410Z,95906.56
2023-03-02T15:12:45.398Z,95903.69
2023-03-02T15:15:12.871Z,95902.66
2023-03-02T15:17:40.841Z,95910.16
2023-03-02T15:20:08.624Z,95908.03
2023-03-02T15:22:35.248Z,95906.28
2023-03-02T15:25:01.936Z,95901.72
2023-03-02T15:27:28.547Z,95903.94
2023-03-02T15:29:56.869Z,95908.69
2023-03-02T15:32:23.704Z,95906.28
2023-03-02T15:34:50.312Z,95906.94
2023-03-02T15:37:17.162Z,95915.69
2023-03-02T15:39:44.618Z,95908.19
2023-03-02T15:42:13.494Z,95904.41
2023-03-02T15:44:40.607Z,95912.31
2023-03-02T15:47:07.320Z,95916.91
2023-03-02T15:49:33.985Z,95912.31
2023-03-02T15:52:00.655Z,95912.91
2023-03-02T15:54:28.771Z,95914.78
2023-03-02T15:56:55.704Z,95915.59
2023-03-02T15:59:25.493Z,95910.13
2023-03-02T16:01:53.007Z,95917.56
2023-03-02T16:04:19.890Z,95908.50
2023-03-02T16:06:46.578Z,95918.47
2023-03-02T16:09:13.176Z,95919.69
2023-03-02T16:11:39.787Z,95914.06
2023-03-02T16:14:06.443Z,95922.34
2023-03-02T16:16:33.286Z,95919.59
2023-03-02T16:19:00.117Z,95926.06
2023-03-02T16:21:28.680Z,95925.41
2023-03-02T16:24:03.142Z,95929.03
2023-03-02T16:26:31.859Z,95923.81
2023-03-02T16:28:59.672Z,95928.66
2023-03-02T16:31:28.126Z,95922.69
2023-03-02T16:33:57.534Z,95922.97
2023-03-02T16:36:24.159Z,95936.97
2023-03-02T16:38:50.844Z,95928.19
2023-03-02T16:41:20.428Z,95936.00
2023-03-02T16:43:53.197Z,95938.22
2023-03-02T16:46:21.618Z,95936.00
2023-03-02T16:48:49.157Z,95934.53
2023-03-02T16:51:18.169Z,95939.38
2023-03-02T16:53:45.245Z,95945.75
2023-03-02T16:56:13.021Z,95949.22
2023-03-02T16:58:41.416Z,95957.75
2023-03-02T17:01:10.477Z,95958.00
2023-03-02T17:03:37.175Z,95965.00
2023-03-02T17:06:06.566Z,95963.81
2023-03-02T17:08:33.647Z,95964.00
2023-03-02T17:11:00.435Z,95968.97
2023-03-02T17:13:27.203Z,95971.75
2023-03-02T17:15:54.488Z,95981.59
2023-03-02T17:18:21.144Z,95979.31
2023-03-02T17:20:52.138Z,95982.09
2023-03-02T17:23:18.855Z,95988.03
2023-03-02T17:25:45.504Z,95983.34
2023-03-02T17:28:14.894Z,95990.72
2023-03-02T17:30:42.303Z,95989.97
2023-03-02T17:33:09.638Z,95992.19
2023-03-02T17:35:36.648Z,95999.84
2023-03-02T17:38:03.301Z,96005.81
2023-03-02T17:40:30.133Z,96003.78
2023-03-02T17:42:57.827Z,96003.19
2023-03-02T17:45:27.327Z,96000.75
2023-03-02T17:47:56.435Z,96012.25
2023-03-02T17:50:23.593Z,96014.09
2023-03-02T17:52:51.402Z,96013.72
2023-03-02T17:55:18.211Z,96021.06
2023-03-02T17:57:44.887Z,96014.03
2023-03-02T18:00:16.187Z,96017.84
2023-03-02T18:02:42.953Z,96029.72
2023-03-02T18:05:10.219Z,96023.56
2023-03-02T18:07:37.420Z,96024.22
2023-03-02T18:10:05.487Z,96018.44
2023-03-02T18:12:32.254Z,96020.34
2023-03-02T18:14:58.877Z,96024.00
2023-03-02T18:17:25.616Z,96023.78
2023-03-02T18:19:52.357Z,96021.47
2023-03-02T18:22:19.515Z,96031.16
2023-03-02T18:24:47.537Z,96034.06
2023-03-02T18:27:14.226Z,96030.53
2023-03-02T18:29:40.874Z,96023.72
2023-03-02T18:32:07.607Z,96031.91
2023-03-02T18:34:34.236Z,96023.38
2023-03-02T18:37:00.854Z,96031.97
2023-03-02T18:39:27.465Z,96027.06
2023-03-02T18:41:54.099Z,96026.22
2023-03-02T18:44:20.812Z,96028.59
2023-03-02T18:46:47.478Z,96033.63
2023-03-02T18:49:14.084Z,96034.63
2023-03-02T18:51:40.747Z,96038.78
2023-03-02T18:54:07.666Z,96041.75
2023-03-02T18:56:34.336Z,96043.84
2023-03-02T18:59:01.047Z,96048.09
2023-03-02T19:01:30.905Z,96043.09
2023-03-02T19:03:58.799Z,96052.19
2023-03-02T19:06:25.412Z,96054.34
2023-03-02T19:08:52.059Z,96048.59
2023-03-02T19:11:18.708Z,96053.34
2023-03-02T19:13:45.383Z,96061.97
2023-03-02T19:16:12.414Z,96053.38
2023-03-02T19:18:39.392Z,96057.13
2023-03-02T19:21:06.562Z,96060.34
2023-03-02T19:23:33.298Z,96061.50
2023-03-02T19:26:00.263Z,96068.59
2023-03-02T19:28:27.588Z,96060.63
2023-03-02T19:30:54.271Z,96069.84
2023-03-02T19:33:21.020Z,96067.78
2023-03-02T19:35:47.632Z,96066.44
2023-03-02T19:38:14.267Z,96064.78
2023-03-02T19:40:40.945Z,96070.25
2023-03-02T19:43:08.002Z,96068.91
2023-03-02T19:45:35.805Z,96074.25
2023-03-02T19:48:03.828Z,96078.66
2023-03-02T19:50:30.617Z,96075.53
2023-03-02T19:52:58.323Z,96076.59
2023-03-02T19:55:25.554Z,96075.09
2023-03-02T19:57:59.609Z,96083.41
2023-03-02T20:00:28.766Z,96084.31
2023-03-02T20:02:56.024Z,96093.44
2023-03-02T20:05:22.702Z,96091.78
2023-03-02T20:07:49.454Z,96090.53
2023-03-02T20:10:30.230Z,96091.34
2023-03-02T20:12:57.252Z,96093.03
2023-03-02T20:15:23.884Z,96094.13
2023-03-02T20:17:50.583Z,96097.31
2023-03-02T20:20:17.205Z,96091.47
2023-03-02T20:22:45.502Z,96094.19
2023-03-02T20:25:14.481Z,96100.06
2023-03-02T20:27:41.850Z,96097.09
2023-03-02T20:30:11.168Z,96103.78
2023-03-02T20:32:37.838Z,96101.13
2023-03-02T20:35:04.953Z,96095.53
2023-03-02T20:37:31.862Z,96104.88
2023-03-02T20:39:59.062Z,96105.91
2023-03-02T20:42:25.729Z,96102.72
2023-03-02T20:44:52.537Z,96106.72
2023-03-02T20:47:19.580Z,96112.88
2023-03-02T20:49:46.277Z,96108.59
2023-03-02T20:52:12.982Z,96112.88
2023-03-02T20:54:42.142Z,96118.19
2023-03-02T20:57:09.272Z,96117.44
2023-03-02T20:59:39.286Z,96118.47
2023-03-02T21:02:06.170Z,96126.19
2023-03-02T21:04:34.576Z,96128.84
2023-03-02T21:07:01.719Z,96126.44
2023-03-02T21:09:28.442Z,96133.88
2023-03-02T21:11:57.107Z,96133.06
2023-03-02T21:14:23.945Z,96126.56
2023-03-02T21:16:50.616Z,96129.47
2023-03-02T21:19:18.863Z,96130.28
2023-03-02T21:21:46.350Z,96119.66
2023-03-02T21:24:19.116Z,96136.69
2023-03-02T21:26:47.852Z,96130.31
2023-03-02T21:29:14.989Z,96138.25
2023-03-02T21:31:43.895Z,96134.47
2023-03-02T21:34:12.785Z,96131.72
2023-03-02T21:36:39.504Z,96135.34
2023-03-02T21:39:07.006Z,96136.50
2023-03-02T21:41:38.032Z,96132.75
2023-03-02T21:44:05.921Z,96137.06
2023-03-02T21:46:34.937Z,96128.59
2023-03-02T21:49:01.612Z,96131.25
2023-03-02T21:51:28.380Z,96132.28
2023-03-02T21:53:55.039Z,96135.97
2023-03-02T21:56:24.650Z,96132.78
2023-03-02T21:58:53.107Z,96131.50
2023-03-02T22:01:20.929Z,96139.13
2023-03-02T22:03:48.265Z,96143.34
2023-03-02T22:06:20.441Z,96132.50
2023-03-02T22:08:47.147Z,96128.72
2023-03-02T22:11:39.621Z,96130.56
2023-03-02T22:14:14.865Z,96130.03
2023-03-02T22:16:45.164Z,96132.91
2023-03-02T22:19:17.767Z,96127.38
2023-03-02T22:21:47.923Z,96127.38
2023-03-02T22:24:21.490Z,96136.44
2023-03-02T22:26:55.587Z,96141.16
2023-03-02T22:29:25.594Z,96147.50
2023-03-02T22:31:55.162Z,96140.88
2023-03-02T22:34:30.814Z,96138.81
2023-03-02T22:37:03.227Z,96143.28
2023-03-02T22:39:33.696Z,96148.13
2023-03-02T22:42:21.395Z,96141.63
2023-03-02T22:45:01.727Z,96146.63
2023-03-02T22:47:28.459Z,96151.13
2023-03-02T22:50:00.344Z,96145.28
2023-03-02T22:52:37.167Z,96156.44
2023-03-02T22:55:40.296Z,96146.78
2023-03-02T22:58:27.719Z,96150.41
2023-03-02T23:00:54.860Z,96150.94
2023-03-02T23:03:25.115Z,96149.63
2023-03-02T23:05:53.125Z,96157.38
2023-03-02T23:08:28.655Z,96152.94
2023-03-02T23:10:58.019Z,96163.25
2023-03-02T23:13:31.050Z,96161.66
2023-03-02T23:15:57.853Z,96168.56
2023-03-02T23:18:29.884Z,96169.22
2023-03-02T23:20:56.687Z,96168.72
2023-03-02T23:23:26.634Z,96166.41
2023-03-02T23:25:53.284Z,96164.06
2023-03-02T23:28:19.868Z,96160.09
2023-03-02T23:30:47.655Z,96165.19
2023-03-02T23:33:14.236Z,96174.94
2023-03-02T23:35:41.979Z,96177.09
2023-03-02T23:38:08.732Z,96173.00
2023-03-02T23:40:35.413Z,96178.59
2023-03-02T23:43:02.346Z,96178.50
2023-03-02T23:45:29.008Z,96181.84
2023-03-02T23:47:55.622Z,96184.25
2023-03-02T23:50:22.362Z,96182.06
2023-03-02T23:52:49.325Z,96186.78
2023-03-02T23:55:16.476Z,96187.78
2023-03-02T23:57:43.092Z,96189.94
